Pays
Station

 

Conditions  météo  pour  Watertown, Watertown Municipal Airport  -  Etats-Unis    Etats-Unis

  
19 °C
    
 
 

METAR pour Watertown, Watertown Municipal Airport :

KATY 232053Z AUTO 20012KT 10SM CLR 19/02 A3000 RMK AO2 SLP161 T01890022 56028

 

Voici le bulletin pour Watertown, Watertown Municipal Airport - Etats-Unis.
 
Le bulletin a été fait il y a une heure et 7 minutes, à 20:53 UTC .
Le vent soufflait à la vitesse de 6.2 mètres par seconde de Sud/Sud-ouest (200°).
 
La température était de 19 °C, avec un point de rosée à 2 °C.
La pression atmosphérique était de 1016 hPa.
L'humidité relative était de 32.1%.
 
Le ciel était clair.
 
La visibilité globale était de 16.1 kilomètres.
 

 
 
 

Pays :   A   B   C   D   E   F   G   H   I   J   K   L   M   N   O   P   Q   R   S   T   U   V   W   Y   Z

 

Partenaires :  Info Météo avec Met'info
Météo Marine avec MeteoMarine.net
Infos Site  |  Infos Légales  |  Crédits  |  Confidentialité
Contactez-nous  |  Ajouter aux favoris
© 2013-2019 METAR - Tous droits réservés